Como, CO

10:39 PM MDT on June 28, 2017 (GMT -0600)
MCO110 | | Change Station

Elev 9512 ft 39.35 °N, 105.84 °W | Updated 46 days ago

Partly Cloudy
Partly Cloudy
58.0 °F
Feels Like 58.0 °F
N
14.0
Wind Variable Wind from WSW
Gusts 18.0 mph

Today
High -- | Low -- °F
--% Chance of Precip.
Yesterday
High -- | Low -- °F
Precip. -- in
Pressure 29.70 in
Visibility 10.0 miles
Clouds Few 12000 ft
Dew Point 12.0 °F
Humidity 16%
Rainfall in
Snow Depth Not available.
5:39 AM 8:34 PM
Waxing Crescent, 31% visible
METAR KLXV 290353Z AUTO 05004KT 10SM FEW120 14/M08 A3022 RMK AO2 RAB14E23 SLP055 P0000 T01391083
Pressure 29.70 in
Visibility 10.0 miles
Clouds Few 12000 ft
Dew Point 12.0 °F
Humidity 16%
Rainfall in
Snow Depth Not available.
5:39 AM 8:34 PM
Waxing Crescent, 31% visible
METAR KLXV 290353Z AUTO 05004KT 10SM FEW120 14/M08 A3022 RMK AO2 RAB14E23 SLP055 P0000 T01391083

Get Severe Weather Alerts

Thanks for signing up!

Be on the lookout for a verification email in your inbox.

You'll start receiving the daily forecast at 6 AM.

×

10-Day Weather Forecast

Almanac

Astronomy

Jun. 28, 2017 Rise Set
Actual Time
Civil Twilight
Nautical Twilight
Astronomical Twilight
Moon
Length of Visible Light
Length of Day
Tomorrow will be .
, % of the Moon is Illuminated

Today's Extremes

State Highs State Lows

Community

WunderPhotos

Category 6

Welcome to Category 6. This is the collective home for Weather Underground's featured writeups by Dr. Jeff Masters (right), Bob Henson (left), Chris Burt, and other regular contributors.

Nearby

Air Quality

  Air Quality AQ Index Pollutant
Not available.

Snow Depth

Station Depth Elevation

Earthquake Activity

City Distance Mag. Time & Date
Minimum magnitude displayed is 2.5.

Coastal Water Temperatures

Place Temperature

Stations

Nearby Weather Stations

Station Location Temp. Windchill Dew Point Humidity Wind Precip. Elev Updated Type
                   

Watches & Warnings

There are currently no watches in effect.